<?xml version="1.0" encoding="UTF-8" standalone="no" ?>
<gpx xmlns="http://www.topografix.com/GPX/1/1" xmlns:xsi="http://www.w3.org/2001/XMLSchema-instance" xsi:schemaLocation="http://www.topografix.com/GPX/1/1 http://www.topografix.com/GPX/1/1/gpx.xsd" version="1.1" creator="VisuGPX - https://www.visugpx.com">
  <metadata>
    <name>Etape 3: Saint-Florent-sur-Cher&gt; Selles-sur-Cher</name>
    <desc><![CDATA[Etape 3: Saint-Florent-sur-Cher> Selles-sur-Cher
Vendredi 15 juin]]></desc>
  </metadata>
  <trk>
    <name><![CDATA[20180610202720-Fjr1U]]></name>
    <trkseg>
      <trkpt lat="46.57035" lon="2.60184">
        <ele>170</ele>
        <time>2018-04-16T09:22:12Z</time>
      </trkpt>
      <trkpt lat="46.57035" lon="2.60184">
        <ele>170</ele>
        <time>2018-04-16T09:22:18Z</time>
      </trkpt>
      <trkpt lat="46.57037" lon="2.60183">
        <ele>170</ele>
        <time>2018-04-16T09:22:19Z</time>
      </trkpt>
      <trkpt lat="46.57033" lon="2.60184">
        <ele>170</ele>
        <time>2018-04-16T09:22:24Z</time>
      </trkpt>
      <trkpt lat="46.57031" lon="2.60184">
        <ele>170</ele>
        <time>2018-04-16T09:22:33Z</time>
      </trkpt>
      <trkpt lat="46.57033" lon="2.60179">
        <ele>170</ele>
        <time>2018-04-16T09:22:37Z</time>
      </trkpt>
      <trkpt lat="46.57035" lon="2.60177">
        <ele>170</ele>
        <time>2018-04-16T09:22:38Z</time>
      </trkpt>
      <trkpt lat="46.57047" lon="2.60165">
        <ele>171</ele>
        <time>2018-04-16T09:22:42Z</time>
      </trkpt>
      <trkpt lat="46.57054" lon="2.6016">
        <ele>171</ele>
        <time>2018-04-16T09:22:44Z</time>
      </trkpt>
      <trkpt lat="46.57065" lon="2.6015">
        <ele>171</ele>
        <time>2018-04-16T09:22:47Z</time>
      </trkpt>
      <trkpt lat="46.57069" lon="2.60146">
        <ele>171</ele>
        <time>2018-04-16T09:22:48Z</time>
      </trkpt>
      <trkpt lat="46.57073" lon="2.60142">
        <ele>171</ele>
        <time>2018-04-16T09:22:49Z</time>
      </trkpt>
      <trkpt lat="46.571" lon="2.60104">
        <ele>172</ele>
        <time>2018-04-16T09:22:57Z</time>
      </trkpt>
      <trkpt lat="46.57107" lon="2.6009">
        <ele>172</ele>
        <time>2018-04-16T09:23:00Z</time>
      </trkpt>
      <trkpt lat="46.57117" lon="2.60076">
        <ele>172</ele>
        <time>2018-04-16T09:23:04Z</time>
      </trkpt>
      <trkpt lat="46.57135" lon="2.60052">
        <ele>172</ele>
        <time>2018-04-16T09:23:11Z</time>
      </trkpt>
      <trkpt lat="46.57146" lon="2.60043">
        <ele>172</ele>
        <time>2018-04-16T09:23:15Z</time>
      </trkpt>
      <trkpt lat="46.57152" lon="2.60039">
        <ele>172</ele>
        <time>2018-04-16T09:23:17Z</time>
      </trkpt>
      <trkpt lat="46.57157" lon="2.60037">
        <ele>172</ele>
        <time>2018-04-16T09:23:19Z</time>
      </trkpt>
      <trkpt lat="46.57164" lon="2.60032">
        <ele>172</ele>
        <time>2018-04-16T09:23:22Z</time>
      </trkpt>
      <trkpt lat="46.57166" lon="2.6003">
        <ele>172</ele>
        <time>2018-04-16T09:23:23Z</time>
      </trkpt>
      <trkpt lat="46.57174" lon="2.60022">
        <ele>172</ele>
        <time>2018-04-16T09:23:27Z</time>
      </trkpt>
      <trkpt lat="46.57197" lon="2.60015">
        <ele>172</ele>
        <time>2018-04-16T09:23:34Z</time>
      </trkpt>
      <trkpt lat="46.57226" lon="2.60004">
        <ele>172</ele>
        <time>2018-04-16T09:23:42Z</time>
      </trkpt>
      <trkpt lat="46.57265" lon="2.59991">
        <ele>172</ele>
        <time>2018-04-16T09:23:52Z</time>
      </trkpt>
      <trkpt lat="46.57298" lon="2.5998">
        <ele>171</ele>
        <time>2018-04-16T09:24:00Z</time>
      </trkpt>
      <trkpt lat="46.57329" lon="2.5997">
        <ele>171</ele>
        <time>2018-04-16T09:24:07Z</time>
      </trkpt>
      <trkpt lat="46.57339" lon="2.59966">
        <ele>171</ele>
        <time>2018-04-16T09:24:09Z</time>
      </trkpt>
      <trkpt lat="46.57389" lon="2.59949">
        <ele>171</ele>
        <time>2018-04-16T09:24:20Z</time>
      </trkpt>
      <trkpt lat="46.57399" lon="2.59946">
        <ele>171</ele>
        <time>2018-04-16T09:24:22Z</time>
      </trkpt>
      <trkpt lat="46.57431" lon="2.59936">
        <ele>170</ele>
        <time>2018-04-16T09:24:29Z</time>
      </trkpt>
      <trkpt lat="46.57435" lon="2.59935">
        <ele>170</ele>
        <time>2018-04-16T09:24:30Z</time>
      </trkpt>
      <trkpt lat="46.57466" lon="2.59924">
        <ele>170</ele>
        <time>2018-04-16T09:24:37Z</time>
      </trkpt>
      <trkpt lat="46.57503" lon="2.59912">
        <ele>170</ele>
        <time>2018-04-16T09:24:45Z</time>
      </trkpt>
      <trkpt lat="46.57507" lon="2.5991">
        <ele>170</ele>
        <time>2018-04-16T09:24:46Z</time>
      </trkpt>
      <trkpt lat="46.57539" lon="2.59899">
        <ele>170</ele>
        <time>2018-04-16T09:24:53Z</time>
      </trkpt>
      <trkpt lat="46.57556" lon="2.59893">
        <ele>170</ele>
        <time>2018-04-16T09:24:57Z</time>
      </trkpt>
      <trkpt lat="46.5757" lon="2.5989">
        <ele>170</ele>
        <time>2018-04-16T09:25:00Z</time>
      </trkpt>
      <trkpt lat="46.57583" lon="2.59884">
        <ele>170</ele>
        <time>2018-04-16T09:25:03Z</time>
      </trkpt>
      <trkpt lat="46.576" lon="2.59879">
        <ele>170</ele>
        <time>2018-04-16T09:25:07Z</time>
      </trkpt>
      <trkpt lat="46.57617" lon="2.59872">
        <ele>170</ele>
        <time>2018-04-16T09:25:11Z</time>
      </trkpt>
      <trkpt lat="46.5764" lon="2.59861">
        <ele>170</ele>
        <time>2018-04-16T09:25:16Z</time>
      </trkpt>
      <trkpt lat="46.57685" lon="2.59839">
        <ele>171</ele>
        <time>2018-04-16T09:25:26Z</time>
      </trkpt>
      <trkpt lat="46.5773" lon="2.59819">
        <ele>172</ele>
        <time>2018-04-16T09:25:36Z</time>
      </trkpt>
      <trkpt lat="46.57767" lon="2.59813">
        <ele>172</ele>
        <time>2018-04-16T09:25:44Z</time>
      </trkpt>
      <trkpt lat="46.57818" lon="2.59815">
        <ele>171</ele>
        <time>2018-04-16T09:25:55Z</time>
      </trkpt>
      <trkpt lat="46.57871" lon="2.59823">
        <ele>171</ele>
        <time>2018-04-16T09:26:06Z</time>
      </trkpt>
      <trkpt lat="46.57882" lon="2.59828">
        <ele>171</ele>
        <time>2018-04-16T09:26:08Z</time>
      </trkpt>
      <trkpt lat="46.57901" lon="2.59843">
        <ele>170</ele>
        <time>2018-04-16T09:26:12Z</time>
      </trkpt>
      <trkpt lat="46.5791" lon="2.59851">
        <ele>170</ele>
        <time>2018-04-16T09:26:14Z</time>
      </trkpt>
      <trkpt lat="46.57936" lon="2.59876">
        <ele>170</ele>
        <time>2018-04-16T09:26:20Z</time>
      </trkpt>
      <trkpt lat="46.57977" lon="2.59914">
        <ele>170</ele>
        <time>2018-04-16T09:26:30Z</time>
      </trkpt>
      <trkpt lat="46.57981" lon="2.59918">
        <ele>170</ele>
        <time>2018-04-16T09:26:31Z</time>
      </trkpt>
      <trkpt lat="46.58001" lon="2.59937">
        <ele>170</ele>
        <time>2018-04-16T09:26:36Z</time>
      </trkpt>
      <trkpt lat="46.58038" lon="2.59974">
        <ele>170</ele>
        <time>2018-04-16T09:26:46Z</time>
      </trkpt>
      <trkpt lat="46.58041" lon="2.59977">
        <ele>170</ele>
        <time>2018-04-16T09:26:47Z</time>
      </trkpt>
      <trkpt lat="46.5806" lon="2.60001">
        <ele>170</ele>
        <time>2018-04-16T09:26:53Z</time>
      </trkpt>
      <trkpt lat="46.58062" lon="2.60005">
        <ele>170</ele>
        <time>2018-04-16T09:26:54Z</time>
      </trkpt>
      <trkpt lat="46.58069" lon="2.6001">
        <ele>170</ele>
        <time>2018-04-16T09:26:57Z</time>
      </trkpt>
      <trkpt lat="46.58071" lon="2.60009">
        <ele>170</ele>
        <time>2018-04-16T09:26:58Z</time>
      </trkpt>
      <trkpt lat="46.5807" lon="2.60008">
        <ele>170</ele>
        <time>2018-04-16T09:27:02Z</time>
      </trkpt>
      <trkpt lat="46.5807" lon="2.60008">
        <ele>170</ele>
        <time>2018-04-16T09:27:15Z</time>
      </trkpt>
      <trkpt lat="46.5807" lon="2.60008">
        <ele>170</ele>
        <time>2018-04-16T09:27:27Z</time>
      </trkpt>
      <trkpt lat="46.58071" lon="2.60008">
        <ele>170</ele>
        <time>2018-04-16T09:27:36Z</time>
      </trkpt>
      <trkpt lat="46.58071" lon="2.60008">
        <ele>170</ele>
        <time>2018-04-16T09:27:43Z</time>
      </trkpt>
      <trkpt lat="46.58071" lon="2.60008">
        <ele>170</ele>
        <time>2018-04-16T09:27:57Z</time>
      </trkpt>
      <trkpt lat="46.58071" lon="2.60008">
        <ele>170</ele>
        <time>2018-04-16T09:28:09Z</time>
      </trkpt>
      <trkpt lat="46.58071" lon="2.60008">
        <ele>170</ele>
        <time>2018-04-16T09:28:19Z</time>
      </trkpt>
      <trkpt lat="46.58071" lon="2.60008">
        <ele>170</ele>
        <time>2018-04-16T09:28:29Z</time>
      </trkpt>
      <trkpt lat="46.58071" lon="2.60009">
        <ele>170</ele>
        <time>2018-04-16T09:28:37Z</time>
      </trkpt>
      <trkpt lat="46.58071" lon="2.60009">
        <ele>170</ele>
        <time>2018-04-16T09:28:44Z</time>
      </trkpt>
      <trkpt lat="46.58071" lon="2.60009">
        <ele>170</ele>
        <time>2018-04-16T09:28:48Z</time>
      </trkpt>
      <trkpt lat="46.58071" lon="2.60009">
        <ele>170</ele>
        <time>2018-04-16T09:29:00Z</time>
      </trkpt>
      <trkpt lat="46.58071" lon="2.60009">
        <ele>170</ele>
        <time>2018-04-16T09:29:16Z</time>
      </trkpt>
      <trkpt lat="46.58071" lon="2.60009">
        <ele>170</ele>
        <time>2018-04-16T09:29:29Z</time>
      </trkpt>
      <trkpt lat="46.58071" lon="2.60009">
        <ele>170</ele>
        <time>2018-04-16T09:29:47Z</time>
      </trkpt>
      <trkpt lat="46.58072" lon="2.60009">
        <ele>170</ele>
        <time>2018-04-16T09:29:56Z</time>
      </trkpt>
      <trkpt lat="46.58072" lon="2.60009">
        <ele>170</ele>
        <time>2018-04-16T09:30:07Z</time>
      </trkpt>
      <trkpt lat="46.58072" lon="2.60009">
        <ele>170</ele>
        <time>2018-04-16T09:30:17Z</time>
      </trkpt>
      <trkpt lat="46.58072" lon="2.60009">
        <ele>170</ele>
        <time>2018-04-16T09:30:29Z</time>
      </trkpt>
      <trkpt lat="46.58073" lon="2.60009">
        <ele>170</ele>
        <time>2018-04-16T09:30:40Z</time>
      </trkpt>
      <trkpt lat="46.58073" lon="2.60009">
        <ele>170</ele>
        <time>2018-04-16T09:30:49Z</time>
      </trkpt>
      <trkpt lat="46.58073" lon="2.60009">
        <ele>170</ele>
        <time>2018-04-16T09:30:58Z</time>
      </trkpt>
      <trkpt lat="46.58073" lon="2.60009">
        <ele>170</ele>
        <time>2018-04-16T09:31:06Z</time>
      </trkpt>
      <trkpt lat="46.58074" lon="2.60007">
        <ele>170</ele>
        <time>2018-04-16T09:31:09Z</time>
      </trkpt>
      <trkpt lat="46.58079" lon="2.60005">
        <ele>170</ele>
        <time>2018-04-16T09:31:11Z</time>
      </trkpt>
      <trkpt lat="46.58086" lon="2.60001">
        <ele>170</ele>
        <time>2018-04-16T09:31:13Z</time>
      </trkpt>
    </trkseg>
  </trk>
</gpx>